Time;durP1;ratioP1;P1;durP2;ratioP2;P2;SDS_P1;SDS_P2;PMS_P1;PMS_P2;Temp;Humidity;BMP_temperature;BMP_pressure;BME280_temperature;BME280_humidity;BME280_pressure;Samples;Min_cycle;Max_cycle;Signal;HPM_P1;HPM_P2
2021/09/03 00:04:41;;;;;;;14.87;7.75;;;;;;;16.88;100.00;99775.66;4550282;77;28502;-81
2021/09/03 00:10:43;;;;;;;12.82;7.65;;;;;;;17.00;100.00;99777.70;4574578;77;28441;-80
2021/09/03 00:16:44;;;;;;;13.68;7.90;;;;;;;16.80;100.00;99772.86;4530655;76;28477;-81
2021/09/03 00:22:45;;;;;;;13.53;8.15;;;;;;;16.80;100.00;99773.38;4537167;77;28475;-81
2021/09/03 00:28:47;;;;;;;18.17;8.30;;;;;;;16.79;100.00;99764.44;4546410;76;28502;-81
2021/09/03 00:34:48;;;;;;;15.30;7.47;;;;;;;16.58;100.00;99760.65;4591179;77;28489;-81
2021/09/03 00:40:49;;;;;;;12.93;7.17;;;;;;;16.51;100.00;99762.76;4564664;76;28532;-81
2021/09/03 00:46:51;;;;;;;14.87;7.67;;;;;;;16.40;100.00;99761.80;4558445;76;28475;-81
2021/09/03 00:52:52;;;;;;;13.60;7.72;;;;;;;16.50;100.00;99756.49;4543302;76;28899;-80
2021/09/03 00:58:54;;;;;;;14.13;7.45;;;;;;;16.51;100.00;99755.97;4557886;77;28471;-82
2021/09/03 01:04:55;;;;;;;13.83;7.50;;;;;;;16.29;100.00;99752.69;4553440;76;28436;-81
2021/09/03 01:10:57;;;;;;;12.53;7.12;;;;;;;16.14;100.00;99751.43;4537254;77;28428;-81
2021/09/03 01:16:58;;;;;;;13.00;7.00;;;;;;;16.25;100.00;99746.14;4553305;76;28525;-81
2021/09/03 01:22:59;;;;;;;11.28;6.25;;;;;;;16.22;100.00;99746.09;4552382;76;28523;-81
2021/09/03 01:29:01;;;;;;;11.93;6.53;;;;;;;16.16;100.00;99734.36;4557298;76;28533;-81
2021/09/03 01:35:02;;;;;;;13.43;6.83;;;;;;;16.21;100.00;99732.80;4548126;76;28507;-80
2021/09/03 01:41:04;;;;;;;12.00;6.45;;;;;;;16.23;100.00;99735.52;4573099;76;28499;-81
2021/09/03 01:47:06;;;;;;;10.72;5.90;;;;;;;16.36;100.00;99728.11;4582789;77;28528;-82
2021/09/03 01:53:07;;;;;;;16.02;7.10;;;;;;;16.48;100.00;99731.50;4544114;77;28560;-81
2021/09/03 01:59:08;;;;;;;13.78;6.25;;;;;;;16.54;100.00;99728.31;4566476;76;28451;-80
2021/09/03 02:05:10;;;;;;;12.85;7.40;;;;;;;16.49;100.00;99715.50;4545298;77;28478;-81
2021/09/03 02:11:12;;;;;;;12.80;6.97;;;;;;;16.53;100.00;99704.96;4414171;80;28452;-81
2021/09/03 02:17:13;;;;;;;13.62;7.75;;;;;;;16.55;100.00;99696.83;4448654;78;28455;-80
2021/09/03 02:23:14;;;;;;;13.38;7.53;;;;;;;16.70;100.00;99690.73;4465585;78;28451;-81
2021/09/03 02:29:16;;;;;;;11.90;6.80;;;;;;;16.76;100.00;99687.54;4495661;78;28445;-81
2021/09/03 02:35:17;;;;;;;15.38;7.35;;;;;;;16.31;100.00;99679.47;4475559;78;28535;-81
2021/09/03 02:41:19;;;;;;;14.65;8.15;;;;;;;16.50;100.00;99668.81;4474569;78;28470;-81
2021/09/03 02:47:20;;;;;;;14.70;8.08;;;;;;;16.64;100.00;99665.99;4448298;78;28495;-81
2021/09/03 02:53:22;;;;;;;14.50;8.38;;;;;;;16.71;100.00;99661.19;4486750;78;28590;-81
2021/09/03 02:59:24;;;;;;;14.68;7.67;;;;;;;16.59;100.00;99661.85;4440251;78;28523;-81
2021/09/03 03:05:26;;;;;;;13.85;6.85;;;;;;;16.13;100.00;99658.09;4427999;78;28502;-81
2021/09/03 03:11:27;;;;;;;13.48;6.87;;;;;;;15.82;100.00;99654.43;4448244;78;28452;-81
2021/09/03 03:17:28;;;;;;;12.78;6.65;;;;;;;16.11;100.00;99654.29;4452893;78;28490;-81
2021/09/03 03:23:30;;;;;;;11.68;6.33;;;;;;;15.75;100.00;99652.43;4436444;78;28494;-82
2021/09/03 03:29:31;;;;;;;10.00;5.90;;;;;;;15.89;100.00;99659.14;4467874;78;28512;-81
2021/09/03 03:35:32;;;;;;;12.33;6.83;;;;;;;15.85;100.00;99654.47;4449005;78;28456;-81
2021/09/03 03:41:34;;;;;;;12.33;6.80;;;;;;;15.92;100.00;99651.05;4434527;78;28532;-81
2021/09/03 03:47:36;;;;;;;10.80;6.00;;;;;;;15.70;100.00;99646.95;4429559;78;28464;-80
2021/09/03 03:53:37;;;;;;;13.35;6.83;;;;;;;15.54;100.00;99649.43;4434509;78;28510;-80
2021/09/03 03:59:38;;;;;;;14.10;6.65;;;;;;;15.88;100.00;99639.88;4427666;78;28503;-81
2021/09/03 04:05:40;;;;;;;15.13;7.37;;;;;;;16.18;100.00;99645.95;4445590;78;28447;-81
2021/09/03 04:11:41;;;;;;;15.63;8.03;;;;;;;16.53;100.00;99649.32;4450078;78;28446;-81
2021/09/03 04:17:43;;;;;;;18.75;9.15;;;;;;;16.81;100.00;99640.61;4442611;78;28450;-82
2021/09/03 04:23:44;;;;;;;14.75;8.50;;;;;;;17.00;100.00;99639.18;4439731;78;28548;-81
2021/09/03 04:29:45;;;;;;;16.23;8.38;;;;;;;17.01;100.00;99641.38;4464202;78;28423;-81
2021/09/03 04:35:47;;;;;;;18.75;9.00;;;;;;;17.11;100.00;99636.55;4436206;78;28467;-81
2021/09/03 04:41:48;;;;;;;19.67;9.03;;;;;;;17.14;100.00;99627.34;4450752;78;28512;-80
2021/09/03 04:47:50;;;;;;;17.05;8.65;;;;;;;17.37;100.00;99630.75;4372240;79;28510;-82
2021/09/03 04:53:51;;;;;;;17.48;8.63;;;;;;;17.38;100.00;99623.43;4431114;78;28487;-83
2021/09/03 04:59:53;;;;;;;17.07;8.60;;;;;;;17.67;100.00;99637.45;4451778;78;28463;-81
2021/09/03 05:05:54;;;;;;;16.02;8.45;;;;;;;17.96;100.00;99631.62;4454245;78;28456;-82
2021/09/03 05:11:56;;;;;;;16.55;9.28;;;;;;;17.89;100.00;99628.31;4460098;78;28487;-83
2021/09/03 05:17:57;;;;;;;18.80;10.00;;;;;;;17.83;100.00;99623.95;4454738;78;28518;-82
2021/09/03 05:23:58;;;;;;;19.50;9.90;;;;;;;17.82;100.00;99618.23;4439559;78;28506;-82
2021/09/03 05:30:00;;;;;;;19.80;9.03;;;;;;;17.93;100.00;99611.75;4448591;78;28452;-82
2021/09/03 05:36:02;;;;;;;19.35;10.63;;;;;;;18.11;100.00;99612.37;4433620;78;28511;-83
2021/09/03 05:42:04;;;;;;;22.22;10.40;;;;;;;18.19;100.00;99613.22;4457221;78;28429;-83
2021/09/03 05:48:06;;;;;;;16.77;9.50;;;;;;;18.23;100.00;99617.06;4461529;78;28441;-85
2021/09/03 05:54:08;;;;;;;16.80;9.70;;;;;;;18.26;100.00;99618.40;4455943;78;28556;-82
2021/09/03 06:00:10;;;;;;;16.20;10.32;;;;;;;18.39;100.00;99617.91;4431375;78;28505;-82
2021/09/03 06:06:12;;;;;;;16.62;9.55;;;;;;;18.58;100.00;99619.30;4442956;78;28485;-84
2021/09/03 06:12:13;;;;;;;14.87;8.48;;;;;;;18.69;100.00;99610.05;4450814;78;28499;-82
2021/09/03 06:18:14;;;;;;;13.75;8.63;;;;;;;18.65;100.00;99608.97;4426018;79;28442;-83
2021/09/03 06:24:28;;;;;;;13.72;7.08;;;;;;;18.86;100.00;99608.41;4366736;80;28466;-81
2021/09/03 06:30:29;;;;;;;13.55;7.85;;;;;;;18.87;100.00;99614.13;4435584;78;28513;-84
2021/09/03 06:36:31;;;;;;;14.78;8.70;;;;;;;19.25;100.00;99608.97;4444948;79;28452;-84
2021/09/03 06:42:33;;;;;;;19.25;7.95;;;;;;;19.40;100.00;99602.67;4438981;78;28455;-86
2021/09/03 06:48:34;;;;;;;15.83;7.72;;;;;;;19.39;100.00;99611.95;4344872;80;28475;-85
2021/09/03 06:54:36;;;;;;;12.82;7.78;;;;;;;19.50;100.00;99608.91;4432368;78;28556;-82
2021/09/03 07:00:37;;;;;;;14.47;7.30;;;;;;;19.60;100.00;99607.24;4455254;78;28485;-83
2021/09/03 07:06:39;;;;;;;12.98;7.50;;;;;;;19.71;100.00;99608.04;4550163;76;28487;-83
2021/09/03 07:12:40;;;;;;;10.95;6.40;;;;;;;19.92;100.00;99600.58;4549525;77;28490;-84
2021/09/03 07:18:42;;;;;;;12.18;6.55;;;;;;;20.16;100.00;99595.87;4532686;76;28523;-83
2021/09/03 07:24:43;;;;;;;10.70;5.78;;;;;;;20.17;100.00;99594.20;4549949;76;28465;-81
2021/09/03 07:30:44;;;;;;;11.75;6.12;;;;;;;20.16;100.00;99586.31;4550607;76;28444;-81
2021/09/03 07:36:46;;;;;;;9.98;5.60;;;;;;;20.48;100.00;99591.28;4541318;76;28455;-81
2021/09/03 07:42:47;;;;;;;11.93;5.40;;;;;;;20.65;100.00;99581.88;4552095;77;28482;-83
2021/09/03 07:48:48;;;;;;;10.60;6.40;;;;;;;20.97;100.00;99590.66;4545875;76;28518;-81
2021/09/03 07:54:50;;;;;;;12.20;6.85;;;;;;;20.97;100.00;99580.55;4554193;77;28499;-83
2021/09/03 08:00:51;;;;;;;10.10;5.72;;;;;;;21.01;100.00;99580.23;4560435;76;28474;-83
2021/09/03 08:06:53;;;;;;;9.73;5.33;;;;;;;21.16;100.00;99583.37;4567992;77;28432;-82
2021/09/03 08:12:54;;;;;;;11.95;6.22;;;;;;;21.36;98.37;99570.59;4566686;76;28463;-86
2021/09/03 08:18:55;;;;;;;11.18;6.00;;;;;;;21.37;97.77;99561.28;4521653;77;28545;-81
2021/09/03 08:24:57;;;;;;;8.23;5.03;;;;;;;21.53;98.32;99557.02;4544185;76;28487;-79
2021/09/03 08:30:58;;;;;;;7.33;4.47;;;;;;;21.52;91.20;99560.86;4543825;76;28447;-81
2021/09/03 08:36:59;;;;;;;9.98;5.80;;;;;;;21.41;92.88;99555.50;4548900;77;28555;-81
2021/09/03 08:43:01;;;;;;;8.23;5.33;;;;;;;22.04;92.77;99546.55;4554843;77;28440;-80
2021/09/03 08:49:06;;;;;;;7.72;4.85;;;;;;;22.25;87.75;99542.94;4549586;76;28498;-82
2021/09/03 08:55:08;;;;;;;7.22;5.10;;;;;;;22.38;86.99;99544.91;4542547;77;28502;-79
2021/09/03 09:01:13;;;;;;;8.15;5.25;;;;;;;22.23;88.11;99536.95;4553646;76;28480;-79
2021/09/03 09:07:15;;;;;;;6.90;4.22;;;;;;;22.41;82.92;99536.66;4435745;78;28491;-80
2021/09/03 09:13:20;;;;;;;8.85;5.17;;;;;;;22.47;81.09;99532.74;4447352;78;28471;-85
2021/09/03 09:19:21;;;;;;;8.78;4.35;;;;;;;22.32;78.94;99535.70;4464240;78;28467;-83
2021/09/03 09:25:33;;;;;;;9.43;4.72;;;;;;;22.56;74.60;99523.30;4450269;78;28495;-82
2021/09/03 09:31:37;;;;;;;7.72;4.25;;;;;;;22.82;75.23;99511.34;4436972;79;28572;-87
2021/09/03 09:37:42;;;;;;;8.53;4.62;;;;;;;22.84;78.17;99512.42;4468661;78;28489;-84
2021/09/03 09:43:44;;;;;;;7.37;4.40;;;;;;;23.46;74.79;99508.52;4487493;78;28446;-84
2021/09/03 09:49:46;;;;;;;7.75;4.80;;;;;;;23.79;70.68;99504.79;4492207;78;28519;-84
2021/09/03 09:55:47;;;;;;;6.05;3.70;;;;;;;23.42;71.20;99505.32;4455501;78;28465;-84
2021/09/03 10:01:56;;;;;;;5.50;3.92;;;;;;;23.44;69.57;99502.53;4463319;78;28501;-85
2021/09/03 10:07:59;;;;;;;8.50;4.50;;;;;;;23.57;66.34;99494.01;4436253;79;28444;-85
2021/09/03 10:14:04;;;;;;;5.37;3.85;;;;;;;23.62;62.22;99502.69;4460648;78;28466;-85
2021/09/03 10:20:09;;;;;;;5.95;3.75;;;;;;;24.46;62.90;99492.28;4446493;78;28433;-85
2021/09/03 10:26:10;;;;;;;6.53;3.80;;;;;;;24.27;60.09;99494.41;4447984;79;28502;-86
2021/09/03 10:32:21;;;;;;;8.28;4.50;;;;;;;24.86;60.60;99477.00;4467504;78;28437;-83
2021/09/03 10:38:30;;;;;;;7.00;4.42;;;;;;;24.92;60.29;99472.42;4467814;78;28460;-84
2021/09/03 10:45:03;;;;;;;6.05;4.12;;;;;;;24.52;57.16;99468.22;4454635;78;28530;-79
2021/09/03 10:51:05;;;;;;;6.72;4.50;;;;;;;24.85;59.24;99454.77;4455588;78;28515;-81
2021/09/03 10:57:12;;;;;;;7.20;4.20;;;;;;;25.14;56.02;99441.02;4438158;78;28551;-80
2021/09/03 11:03:53;;;;;;;6.53;4.25;;;;;;;24.94;56.94;99444.61;4454305;78;28480;-80
2021/09/03 11:09:55;;;;;;;8.65;4.60;;;;;;;24.85;58.02;99434.94;4289961;81;28516;-81
2021/09/03 11:15:57;;;;;;;6.33;4.12;;;;;;;24.81;57.49;99427.64;4417193;78;28608;-82
2021/09/03 11:22:11;;;;;;;6.15;3.90;;;;;;;25.21;56.93;99420.73;4406097;78;28510;-81
2021/09/03 11:28:13;;;;;;;7.72;4.53;;;;;;;25.13;54.13;99420.14;4366989;79;28557;-82
2021/09/03 11:34:14;;;;;;;7.87;4.37;;;;;;;25.25;57.63;99407.94;4384156;79;28455;-84
2021/09/03 11:40:30;;;;;;;6.50;4.10;;;;;;;25.49;56.72;99402.56;4373722;79;28560;-83
2021/09/03 11:46:35;;;;;;;5.85;4.28;;;;;;;25.54;57.47;99401.05;4431407;78;28496;-82
2021/09/03 11:52:37;;;;;;;5.90;3.83;;;;;;;25.44;54.88;99394.45;4393870;78;28508;-84
2021/09/03 11:58:38;;;;;;;7.62;3.85;;;;;;;25.38;52.04;99402.64;4476700;77;28471;-83
2021/09/03 12:04:41;;;;;;;6.50;4.12;;;;;;;24.98;54.25;99390.59;4388524;80;28460;-83
2021/09/03 12:10:58;;;;;;;5.83;4.12;;;;;;;25.08;52.03;99381.80;4399292;79;28505;-83
2021/09/03 12:17:01;;;;;;;7.58;4.80;;;;;;;25.45;51.51;99379.56;4480322;76;28479;-83
2021/09/03 12:23:02;;;;;;;6.90;4.03;;;;;;;25.29;53.66;99379.22;4444537;77;28454;-83
2021/09/03 12:29:10;;;;;;;7.90;4.15;;;;;;;24.71;49.29;99374.53;4442450;78;28505;-83
2021/09/03 12:35:14;;;;;;;6.08;4.08;;;;;;;25.17;51.93;99379.29;4426944;78;28478;-83
2021/09/03 12:41:20;;;;;;;6.75;4.05;;;;;;;25.23;52.52;99371.69;4415903;78;28456;-82
2021/09/03 12:47:21;;;;;;;6.25;4.00;;;;;;;25.39;51.36;99360.23;4441073;78;28475;-82
2021/09/03 12:53:24;;;;;;;6.60;4.17;;;;;;;25.77;52.75;99355.45;4474901;78;28467;-84
2021/09/03 12:59:25;;;;;;;6.37;4.05;;;;;;;25.43;52.04;99350.18;4459008;78;28477;-84
2021/09/03 13:05:26;;;;;;;6.45;4.25;;;;;;;25.45;52.62;99337.72;4468460;79;28478;-83
2021/09/03 13:11:27;;;;;;;5.97;4.08;;;;;;;25.17;50.87;99331.73;4453320;78;28463;-85
2021/09/03 13:17:29;;;;;;;7.22;4.42;;;;;;;25.02;50.41;99322.80;4446328;78;28484;-83
2021/09/03 13:23:30;;;;;;;6.62;4.37;;;;;;;25.11;50.57;99319.25;4468530;78;28436;-83
2021/09/03 13:29:32;;;;;;;6.47;4.25;;;;;;;25.26;50.10;99312.47;4452720;78;28536;-84
2021/09/03 13:35:36;;;;;;;6.37;4.28;;;;;;;25.02;49.80;99309.63;4463328;78;28486;-84
2021/09/03 13:41:37;;;;;;;6.08;4.28;;;;;;;25.26;50.39;99306.97;4456848;78;28485;-83
2021/09/03 13:47:40;;;;;;;6.45;4.60;;;;;;;25.39;49.55;99303.23;4441719;78;28429;-85
2021/09/03 13:53:43;;;;;;;6.10;4.20;;;;;;;25.41;48.90;99298.79;4464499;78;28456;-83
2021/09/03 13:59:44;;;;;;;5.37;3.90;;;;;;;25.17;50.16;99285.75;4408000;79;28502;-84
2021/09/03 14:05:46;;;;;;;5.75;4.20;;;;;;;25.28;49.45;99284.87;4374875;79;28529;-85
2021/09/03 14:11:47;;;;;;;5.17;3.70;;;;;;;25.23;50.48;99272.64;4373308;79;28495;-85
2021/09/03 14:17:48;;;;;;;6.97;4.00;;;;;;;25.39;48.69;99264.70;4372001;79;28486;-84
2021/09/03 14:23:50;;;;;;;4.58;3.60;;;;;;;25.47;50.94;99260.34;4398547;79;28548;-87
2021/09/03 14:29:51;;;;;;;8.33;4.20;;;;;;;25.70;51.20;99256.04;4311541;81;28478;-82
2021/09/03 14:35:53;;;;;;;6.83;4.33;;;;;;;25.46;50.53;99253.20;4445958;78;28496;-85
2021/09/03 14:41:54;;;;;;;6.03;3.98;;;;;;;25.50;51.08;99247.89;4293843;80;28571;-83
2021/09/03 14:47:56;;;;;;;6.40;4.40;;;;;;;25.15;52.56;99250.89;4470861;78;28440;-84
2021/09/03 14:53:58;;;;;;;6.87;4.35;;;;;;;25.53;53.00;99237.62;4447244;78;28568;-81
2021/09/03 14:59:59;;;;;;;7.92;4.20;;;;;;;25.56;52.50;99224.57;4516552;76;28528;-83
2021/09/03 15:06:06;;;;;;;6.78;4.28;;;;;;;26.07;51.16;99226.09;4541216;76;28443;-83
2021/09/03 15:12:10;;;;;;;6.72;4.08;;;;;;;25.48;53.87;99216.55;4558024;76;28432;-84
2021/09/03 15:18:10;;;;;;;6.58;4.00;;;;;;;25.63;54.00;99207.55;4570845;76;28589;-85
2021/09/03 15:24:12;;;;;;;7.05;4.62;;;;;;;25.66;54.08;99204.95;4495559;77;28434;-86
2021/09/03 15:30:16;;;;;;;7.20;4.62;;;;;;;25.40;53.91;99209.11;4500800;77;28457;-83
2021/09/03 15:36:19;;;;;;;5.67;4.03;;;;;;;25.33;56.22;99195.86;4359488;79;28527;-84
2021/09/03 15:42:20;;;;;;;6.20;4.10;;;;;;;25.03;57.30;99197.11;4506565;77;28561;-84
2021/09/03 15:48:22;;;;;;;5.95;3.80;;;;;;;25.08;56.96;99192.00;4505311;77;28489;-85
2021/09/03 15:54:23;;;;;;;7.72;4.22;;;;;;;25.32;56.31;99179.91;4472770;77;28468;-85
2021/09/03 16:00:25;;;;;;;5.95;3.83;;;;;;;25.13;56.55;99166.52;4525991;77;28503;-84
2021/09/03 16:06:27;;;;;;;5.83;4.12;;;;;;;25.14;56.73;99164.56;4531007;76;28522;-84
2021/09/03 16:12:28;;;;;;;6.65;3.90;;;;;;;25.14;56.73;99159.05;4521200;77;28462;-85
2021/09/03 16:18:30;;;;;;;7.00;4.25;;;;;;;25.00;57.79;99153.77;4514158;77;28453;-85
2021/09/03 16:24:32;;;;;;;7.25;4.30;;;;;;;25.08;58.28;99154.30;4517292;76;28486;-85
2021/09/03 16:30:35;;;;;;;6.15;4.45;;;;;;;25.19;57.84;99147.89;4521852;76;28510;-85
2021/09/03 16:36:38;;;;;;;5.45;3.75;;;;;;;24.80;59.09;99145.03;4533777;76;28520;-85
2021/09/03 16:42:40;;;;;;;6.85;4.03;;;;;;;24.73;60.28;99141.38;4515299;77;28520;-85
2021/09/03 16:48:41;;;;;;;9.10;4.33;;;;;;;24.68;61.74;99137.41;4516920;76;28511;-83
2021/09/03 16:54:45;;;;;;;6.85;4.50;;;;;;;24.38;66.29;99144.09;4518662;76;28471;-84
2021/09/03 17:00:47;;;;;;;5.47;3.92;;;;;;;24.29;66.49;99139.14;4510343;77;28571;-86
2021/09/03 17:06:48;;;;;;;8.08;4.50;;;;;;;23.98;68.69;99138.64;4489292;77;28495;-84
2021/09/03 17:12:50;;;;;;;7.22;4.70;;;;;;;23.74;72.67;99143.43;4511509;76;28501;-82
2021/09/03 17:18:52;;;;;;;6.85;4.50;;;;;;;23.55;71.54;99151.09;4525704;76;28553;-84
2021/09/03 17:24:53;;;;;;;8.20;4.58;;;;;;;23.30;73.80;99143.76;4498406;77;28518;-82
2021/09/03 17:30:54;;;;;;;8.48;4.33;;;;;;;22.96;85.11;99149.48;4514340;76;28537;-84
2021/09/03 17:36:56;;;;;;;8.08;4.83;;;;;;;22.63;91.63;99154.37;4508247;77;28485;-85
2021/09/03 17:42:58;;;;;;;6.85;4.87;;;;;;;22.38;93.66;99155.17;4513807;76;28472;-82
2021/09/03 17:49:01;;;;;;;9.55;4.70;;;;;;;22.37;90.96;99158.46;4501348;77;28484;-81
2021/09/03 17:55:03;;;;;;;9.80;5.17;;;;;;;22.03;97.89;99158.93;4506745;77;28505;-82
2021/09/03 18:01:05;;;;;;;8.53;4.78;;;;;;;21.96;90.58;99163.42;4524804;77;28553;-81
2021/09/03 18:07:06;;;;;;;13.38;5.25;;;;;;;21.77;97.64;99159.42;4507621;76;28500;-81
2021/09/03 18:13:07;;;;;;;9.13;5.45;;;;;;;21.45;100.00;99162.69;4507784;76;28499;-82
2021/09/03 18:19:09;;;;;;;10.93;5.55;;;;;;;21.26;100.00;99174.23;4527380;77;28553;-83
2021/09/03 18:25:11;;;;;;;11.55;5.70;;;;;;;21.07;100.00;99171.55;4526857;76;28510;-83
2021/09/03 18:31:13;;;;;;;11.95;6.00;;;;;;;20.99;100.00;99181.25;4511136;76;28512;-83
2021/09/03 18:37:14;;;;;;;9.60;5.87;;;;;;;20.85;100.00;99185.28;4504425;76;28607;-84
2021/09/03 18:43:15;;;;;;;12.85;6.83;;;;;;;20.70;100.00;99182.98;4507238;77;28486;-82
2021/09/03 18:49:17;;;;;;;11.25;6.35;;;;;;;20.51;100.00;99182.98;4531698;76;28531;-81
2021/09/03 18:55:19;;;;;;;11.20;6.55;;;;;;;20.49;100.00;99183.83;4503542;77;28511;-81
2021/09/03 19:01:28;;;;;;;11.63;6.58;;;;;;;20.50;100.00;99178.63;4518784;77;28527;-83
2021/09/03 19:07:27;;;;;;;11.18;6.08;;;;;;;20.37;100.00;99177.42;4520257;77;28449;-83
2021/09/03 19:13:29;;;;;;;10.75;6.42;;;;;;;20.36;100.00;99177.70;4511015;76;28536;-83
2021/09/03 19:19:31;;;;;;;9.68;6.50;;;;;;;20.49;100.00;99189.30;4530281;76;28531;-81
2021/09/03 19:25:33;;;;;;;11.28;6.50;;;;;;;20.32;100.00;99186.48;4514550;76;28495;-81
2021/09/03 19:31:34;;;;;;;13.95;6.87;;;;;;;20.45;100.00;99186.33;4507607;76;28513;-83
2021/09/03 19:37:36;;;;;;;14.18;7.20;;;;;;;20.11;100.00;99186.48;4518686;77;28521;-82
2021/09/03 19:43:37;;;;;;;12.75;7.42;;;;;;;19.95;100.00;99180.39;4517909;76;28521;-82
2021/09/03 19:49:38;;;;;;;18.60;8.48;;;;;;;19.88;100.00;99178.78;4521696;76;28506;-83
2021/09/03 19:55:41;;;;;;;14.55;7.95;;;;;;;19.84;100.00;99187.86;4534861;76;28534;-85
2021/09/03 20:01:42;;;;;;;13.15;8.03;;;;;;;19.96;100.00;99190.20;4531610;77;28457;-82
2021/09/03 20:07:43;;;;;;;14.00;7.75;;;;;;;20.08;100.00;99189.80;4545724;76;28467;-81
2021/09/03 20:13:44;;;;;;;13.80;8.03;;;;;;;19.72;100.00;99198.59;4553206;77;28509;-81
2021/09/03 20:19:46;;;;;;;12.23;7.65;;;;;;;19.65;100.00;99189.95;4532794;76;28484;-83
2021/09/03 20:25:48;;;;;;;13.35;8.40;;;;;;;19.25;100.00;99193.31;4504290;76;28482;-86
2021/09/03 20:31:50;;;;;;;13.32;7.22;;;;;;;19.59;100.00;99197.91;4532028;77;28531;-81
2021/09/03 20:37:51;;;;;;;13.80;8.25;;;;;;;19.12;100.00;99196.13;4518405;76;28472;-81
2021/09/03 20:43:52;;;;;;;13.90;8.20;;;;;;;19.10;100.00;99193.68;4525158;76;28483;-82
2021/09/03 20:49:53;;;;;;;12.82;8.28;;;;;;;18.95;100.00;99187.76;4528885;76;28497;-85
2021/09/03 20:55:55;;;;;;;12.50;7.60;;;;;;;18.79;100.00;99193.33;4520433;76;28445;-83
2021/09/03 21:01:56;;;;;;;15.80;8.40;;;;;;;19.09;100.00;99197.50;4534531;76;28441;-83
2021/09/03 21:07:57;;;;;;;15.03;9.68;;;;;;;18.87;100.00;99194.63;4491889;76;28435;-85
2021/09/03 21:13:59;;;;;;;12.50;7.75;;;;;;;18.64;100.00;99200.20;4511133;76;28507;-84
2021/09/03 21:20:00;;;;;;;12.85;8.68;;;;;;;18.74;100.00;99200.15;4514688;76;28466;-82
2021/09/03 21:26:02;;;;;;;16.15;8.45;;;;;;;18.59;100.00;99199.72;4515131;76;28503;-83
2021/09/03 21:32:04;;;;;;;15.58;8.55;;;;;;;18.63;100.00;99199.94;4418765;78;28466;-83
2021/09/03 21:38:05;;;;;;;16.05;7.90;;;;;;;18.53;100.00;99195.38;4435418;78;28470;-83
2021/09/03 21:44:07;;;;;;;12.07;7.75;;;;;;;18.50;100.00;99196.75;4428644;78;28544;-83
2021/09/03 21:50:10;;;;;;;14.03;7.72;;;;;;;18.63;100.00;99201.30;4511048;77;28516;-82
2021/09/03 21:56:11;;;;;;;12.88;7.55;;;;;;;18.48;100.00;99202.20;4506360;77;28533;-82
2021/09/03 22:02:14;;;;;;;12.58;7.30;;;;;;;18.45;100.00;99201.41;4516004;77;28559;-82
2021/09/03 22:08:16;;;;;;;12.88;7.42;;;;;;;18.37;100.00;99197.36;4518783;77;28475;-82
2021/09/03 22:14:17;;;;;;;12.63;7.53;;;;;;;18.34;100.00;99197.93;4529103;77;28486;-83
2021/09/03 22:20:19;;;;;;;13.98;7.85;;;;;;;18.22;100.00;99202.32;4497485;77;28452;-83
2021/09/03 22:26:20;;;;;;;18.60;10.13;;;;;;;18.25;100.00;99200.39;4533440;77;28471;-82
2021/09/03 22:32:21;;;;;;;13.90;7.87;;;;;;;18.06;100.00;99203.72;4533789;76;28538;-83
2021/09/03 22:38:25;;;;;;;15.43;8.68;;;;;;;18.03;100.00;99214.34;4508349;76;28453;-82
2021/09/03 22:44:26;;;;;;;15.90;8.05;;;;;;;18.11;100.00;99213.77;4518213;76;28487;-81
2021/09/03 22:50:27;;;;;;;11.68;7.60;;;;;;;18.17;100.00;99217.29;4510580;76;28542;-81
2021/09/03 22:56:28;;;;;;;13.40;7.58;;;;;;;18.17;100.00;99209.95;4505381;77;28459;-81
2021/09/03 23:02:30;;;;;;;14.23;7.40;;;;;;;18.21;100.00;99204.78;4527645;76;28465;-84
2021/09/03 23:08:31;;;;;;;16.48;8.10;;;;;;;18.25;100.00;99194.95;4546770;76;28524;-82
2021/09/03 23:14:34;;;;;;;11.80;7.28;;;;;;;18.43;100.00;99191.34;4531971;76;28981;-82
2021/09/03 23:20:36;;;;;;;13.70;8.13;;;;;;;18.24;100.00;99197.41;4521702;76;28523;-82
2021/09/03 23:26:37;;;;;;;13.08;7.62;;;;;;;18.25;100.00;99190.88;4517340;76;28520;-82
2021/09/03 23:32:39;;;;;;;14.85;7.60;;;;;;;18.01;100.00;99200.17;4534630;76;28515;-82
2021/09/03 23:38:40;;;;;;;11.28;7.17;;;;;;;17.96;100.00;99193.66;4527968;76;28550;-84
2021/09/03 23:44:41;;;;;;;14.25;7.17;;;;;;;18.01;100.00;99192.84;4527543;76;28516;-83
2021/09/03 23:50:43;;;;;;;11.83;7.40;;;;;;;17.97;100.00;99195.30;4529592;76;28469;-82
2021/09/03 23:56:45;;;;;;;15.05;7.75;;;;;;;17.84;100.00;99193.16;4538013;76;28526;-82
